createdAt,value
2022-09-06T00:01:38.174Z,101727.09
2022-09-06T00:04:15.001Z,101721.88
2022-09-06T00:06:44.979Z,101710.06
2022-09-06T00:09:14.561Z,101698.53
2022-09-06T00:11:44.165Z,101697.19
2022-09-06T00:14:13.657Z,101694.13
2022-09-06T00:16:43.263Z,101697.53
2022-09-06T00:19:15.378Z,101682.66
2022-09-06T00:21:44.965Z,101686.66
2022-09-06T00:24:14.459Z,101682.66
2022-09-06T00:26:43.990Z,101679.56
2022-09-06T00:29:13.533Z,101675.31
2022-09-06T00:31:43.155Z,101689.25
2022-09-06T00:34:15.274Z,101678.19
2022-09-06T00:36:44.958Z,101679.69
2022-09-06T00:39:14.481Z,101680.06
2022-09-06T00:41:44.026Z,101683.66
2022-09-06T00:44:13.541Z,101678.00
2022-09-06T00:46:45.974Z,101678.69
2022-09-06T00:49:24.216Z,101686.09
2022-09-06T00:51:55.723Z,101687.31
2022-09-06T00:54:25.487Z,101695.53
2022-09-06T00:56:55.019Z,101698.84
2022-09-06T00:59:24.974Z,101694.13
2022-09-06T01:01:55.100Z,101694.72
2022-09-06T01:04:28.111Z,101696.75
2022-09-06T01:07:04.150Z,101693.13
2022-09-06T01:09:42.935Z,101688.22
2022-09-06T01:12:23.822Z,101693.28
2022-09-06T01:15:05.961Z,101686.81
2022-09-06T01:17:44.677Z,101696.53
2022-09-06T01:20:30.670Z,101695.63
2022-09-06T01:23:25.446Z,101685.38
2022-09-06T01:26:03.624Z,101676.28
2022-09-06T01:28:37.473Z,101679.06
2022-09-06T01:31:22.755Z,101677.22
2022-09-06T01:33:59.058Z,101676.44
2022-09-06T01:36:30.274Z,101676.44
2022-09-06T01:38:59.777Z,101674.69
2022-09-06T01:41:29.338Z,101673.84
2022-09-06T01:44:01.950Z,101665.31
2022-09-06T01:46:39.583Z,101662.44
2022-09-06T01:49:24.415Z,101668.78
2022-09-06T01:52:03.739Z,101664.59
2022-09-06T01:54:48.398Z,101659.94
2022-09-06T01:57:28.238Z,101665.03
2022-09-06T02:00:12.157Z,101660.84
2022-09-06T02:02:51.013Z,101664.72
2022-09-06T02:05:25.027Z,101661.53
2022-09-06T02:07:56.907Z,101655.41
2022-09-06T02:10:29.561Z,101655.00
2022-09-06T02:13:01.786Z,101662.13
2022-09-06T02:15:35.965Z,101657.69
2022-09-06T02:18:09.185Z,101658.34
2022-09-06T02:20:43.398Z,101658.44
2022-09-06T02:23:13.167Z,101654.16
2022-09-06T02:25:46.606Z,101657.53
2022-09-06T02:28:16.850Z,101650.22
2022-09-06T02:30:51.438Z,101649.22
2022-09-06T02:33:22.607Z,101646.28
2022-09-06T02:35:55.064Z,101646.34
2022-09-06T02:38:26.144Z,101654.28
2022-09-06T02:40:57.027Z,101649.06
2022-09-06T02:43:27.017Z,101654.91
2022-09-06T02:45:59.266Z,101650.63
2022-09-06T02:48:28.853Z,101653.59
2022-09-06T02:50:58.391Z,101639.91
2022-09-06T02:53:27.905Z,101643.94
2022-09-06T02:55:57.390Z,101643.13
2022-09-06T02:58:27.220Z,101630.13
2022-09-06T03:00:59.446Z,101631.97
2022-09-06T03:03:29.422Z,101637.44
2022-09-06T03:05:59.090Z,101633.06
2022-09-06T03:08:33.530Z,101634.63
2022-09-06T03:11:03.905Z,101634.03
2022-09-06T03:13:33.437Z,101635.66
2022-09-06T03:16:05.861Z,101625.75
2022-09-06T03:18:35.587Z,101626.69
2022-09-06T03:21:05.249Z,101623.16
2022-09-06T03:23:34.731Z,101626.59
2022-09-06T03:26:04.273Z,101621.34
2022-09-06T03:28:33.772Z,101608.19
2022-09-06T03:31:06.345Z,101607.69
2022-09-06T03:33:35.935Z,101601.16
2022-09-06T03:36:06.285Z,101599.59
2022-09-06T03:38:35.806Z,101604.72
2022-09-06T03:41:05.394Z,101613.53
2022-09-06T03:43:34.903Z,101609.28
2022-09-06T03:46:07.135Z,101612.78
2022-09-06T03:48:36.690Z,101603.06
2022-09-06T03:51:06.314Z,101609.78
2022-09-06T03:53:35.805Z,101610.44
2022-09-06T03:56:05.774Z,101609.53
2022-09-06T03:58:35.859Z,101609.91
2022-09-06T04:01:11.257Z,101613.09
2022-09-06T04:03:41.579Z,101617.47
2022-09-06T04:06:11.676Z,101622.44
2022-09-06T04:08:41.582Z,101623.97
2022-09-06T04:11:11.285Z,101620.81
2022-09-06T04:13:41.654Z,101612.31
2022-09-06T04:16:13.916Z,101614.63
2022-09-06T04:18:43.847Z,101618.56
2022-09-06T04:21:13.422Z,101618.75
2022-09-06T04:23:42.969Z,101607.22
2022-09-06T04:26:12.527Z,101605.28
2022-09-06T04:28:42.050Z,101604.75
2022-09-06T04:31:14.250Z,101608.75
2022-09-06T04:33:43.922Z,101617.75
2022-09-06T04:36:14.607Z,101615.22
2022-09-06T04:38:45.638Z,101613.19
2022-09-06T04:41:17.083Z,101611.66
2022-09-06T04:43:46.602Z,101598.88
2022-09-06T04:46:23.011Z,101599.56
2022-09-06T04:48:52.621Z,101605.59
2022-09-06T04:51:22.267Z,101603.53
2022-09-06T04:53:52.018Z,101611.19
2022-09-06T04:56:24.018Z,101613.59
2022-09-06T04:58:54.328Z,101609.66
2022-09-06T05:01:26.716Z,101602.34
2022-09-06T05:03:57.202Z,101594.72
2022-09-06T05:06:28.158Z,101597.53
2022-09-06T05:08:57.689Z,101601.94
2022-09-06T05:11:27.468Z,101601.94
2022-09-06T05:13:56.968Z,101609.53
2022-09-06T05:16:29.126Z,101607.66
2022-09-06T05:18:58.709Z,101597.28
2022-09-06T05:21:28.319Z,101611.09
2022-09-06T05:23:58.762Z,101607.69
2022-09-06T05:26:28.489Z,101621.47
2022-09-06T05:28:57.990Z,101621.47
2022-09-06T05:31:31.967Z,101623.19
2022-09-06T05:34:02.198Z,101610.50
2022-09-06T05:36:32.926Z,101618.06
2022-09-06T05:39:02.488Z,101614.38
2022-09-06T05:41:32.901Z,101608.28
2022-09-06T05:44:02.514Z,101605.94
2022-09-06T05:46:34.625Z,101608.50
2022-09-06T05:49:07.880Z,101612.97
2022-09-06T05:51:37.543Z,101618.16
2022-09-06T05:54:07.843Z,101616.38
2022-09-06T05:56:37.351Z,101617.28
2022-09-06T05:59:07.058Z,101606.25
2022-09-06T06:01:39.285Z,101609.78
2022-09-06T06:04:08.954Z,101620.28
2022-09-06T06:06:38.475Z,101612.50
2022-09-06T06:09:08.207Z,101618.81
2022-09-06T06:11:37.819Z,101618.91
2022-09-06T06:14:08.196Z,101612.84
2022-09-06T06:16:40.553Z,101611.41
2022-09-06T06:19:10.125Z,101612.41
2022-09-06T06:21:40.082Z,101610.63
2022-09-06T06:24:10.066Z,101610.88
2022-09-06T06:26:39.989Z,101608.50
2022-09-06T06:29:09.753Z,101606.06
2022-09-06T06:31:42.123Z,101604.00
2022-09-06T06:34:11.987Z,101611.81
2022-09-06T06:36:41.553Z,101602.31
2022-09-06T06:39:12.007Z,101597.72
2022-09-06T06:41:41.612Z,101592.28
2022-09-06T06:44:11.196Z,101587.56
2022-09-06T06:46:43.286Z,101583.31
2022-09-06T06:49:12.808Z,101590.41
2022-09-06T06:51:42.446Z,101588.91
2022-09-06T06:54:11.959Z,101594.97
2022-09-06T06:56:44.838Z,101583.09
2022-09-06T06:59:14.537Z,101576.81
2022-09-06T07:01:46.911Z,101563.13
2022-09-06T07:04:16.563Z,101574.22
2022-09-06T07:12:32.783Z,101583.00
2022-09-06T07:15:02.294Z,101589.84
2022-09-06T07:17:34.719Z,101589.13
2022-09-06T07:22:42.030Z,101588.19
2022-09-06T07:25:15.326Z,101593.41
2022-09-06T07:27:47.977Z,101589.03
2022-09-06T07:30:19.581Z,101588.41
2022-09-06T07:32:51.854Z,101587.56
2022-09-06T07:35:22.111Z,101594.53
2022-09-06T07:37:55.445Z,101586.09
2022-09-06T07:40:25.435Z,101585.88
2022-09-06T07:42:55.011Z,101592.78
2022-09-06T07:45:24.518Z,101597.16
2022-09-06T07:48:00.825Z,101597.16
2022-09-06T07:50:48.460Z,101591.28
2022-09-06T07:53:30.307Z,101599.13
2022-09-06T07:56:01.426Z,101600.78
2022-09-06T07:58:31.639Z,101605.59
2022-09-06T08:01:27.752Z,101604.91
2022-09-06T08:04:00.805Z,101601.38
2022-09-06T08:09:21.464Z,101606.06
2022-09-06T08:11:51.176Z,101598.53
2022-09-06T08:14:20.702Z,101591.63
2022-09-06T08:16:50.266Z,101581.53
2022-09-06T08:19:22.373Z,101581.66
2022-09-06T08:21:52.035Z,101587.16
2022-09-06T08:24:21.566Z,101592.16
2022-09-06T08:26:51.114Z,101591.28
2022-09-06T08:29:20.825Z,101595.91
2022-09-06T08:31:50.566Z,101603.81
2022-09-06T08:34:22.864Z,101596.00
2022-09-06T08:36:52.374Z,101601.31
2022-09-06T08:39:21.893Z,101606.94
2022-09-06T08:41:54.716Z,101608.53
2022-09-06T08:47:18.093Z,101610.63
2022-09-06T08:49:52.903Z,101604.66
2022-09-06T08:53:15.679Z,101611.47
2022-09-06T08:55:40.067Z,101603.38
2022-09-06T08:58:20.597Z,101597.41
2022-09-06T09:00:58.315Z,101595.84
2022-09-06T09:03:29.866Z,101593.19
2022-09-06T09:06:05.429Z,101585.81
2022-09-06T09:08:41.446Z,101592.91
2022-09-06T09:11:15.011Z,101591.88
2022-09-06T09:13:55.934Z,101596.00
2022-09-06T09:16:26.278Z,101590.69
2022-09-06T09:18:57.747Z,101588.00
2022-09-06T09:21:31.130Z,101587.28
2022-09-06T09:24:02.347Z,101581.97
2022-09-06T09:26:36.894Z,101587.34
2022-09-06T09:29:08.502Z,101576.06
2022-09-06T09:31:39.696Z,101562.19
2022-09-06T09:34:14.382Z,101561.47
2022-09-06T09:39:41.232Z,101561.88
2022-09-06T09:42:11.476Z,101559.81
2022-09-06T09:44:45.970Z,101558.06
2022-09-06T09:47:28.441Z,101552.06
2022-09-06T09:49:58.071Z,101553.41
2022-09-06T09:52:31.821Z,101546.72
2022-09-06T09:55:08.561Z,101545.69
2022-09-06T09:57:47.804Z,101543.09
2022-09-06T10:00:17.913Z,101544.22
2022-09-06T10:02:47.383Z,101542.31
2022-09-06T10:05:22.881Z,101535.50
2022-09-06T10:07:56.437Z,101538.06
2022-09-06T10:10:27.455Z,101532.13
2022-09-06T10:13:10.267Z,101536.13
2022-09-06T10:15:41.424Z,101527.38
2022-09-06T10:18:18.294Z,101526.59
2022-09-06T10:20:53.773Z,101519.41
2022-09-06T10:26:28.398Z,101517.53
2022-09-06T10:29:01.934Z,101511.06
2022-09-06T10:32:04.234Z,101511.34
2022-09-06T10:34:48.369Z,101505.56
2022-09-06T10:37:32.307Z,101499.38
2022-09-06T10:40:09.972Z,101498.41
2022-09-06T10:42:45.791Z,101495.16
2022-09-06T10:45:31.508Z,101489.44
2022-09-06T10:48:04.821Z,101490.22
2022-09-06T10:50:43.009Z,101492.69
2022-09-06T10:53:19.422Z,101489.94
2022-09-06T10:55:58.729Z,101499.38
2022-09-06T11:01:33.250Z,101497.91
2022-09-06T11:04:06.739Z,101498.44
2022-09-06T11:06:47.114Z,101502.19
2022-09-06T11:09:22.821Z,101509.44
2022-09-06T11:12:04.091Z,101506.88
2022-09-06T11:14:33.754Z,101508.53
2022-09-06T11:17:07.232Z,101499.84
2022-09-06T11:19:42.435Z,101498.00
2022-09-06T11:22:35.820Z,101504.03
2022-09-06T11:25:28.951Z,101506.53
2022-09-06T11:28:02.615Z,101497.09
2022-09-06T11:30:33.098Z,101496.00
2022-09-06T11:33:14.922Z,101508.19
2022-09-06T11:35:45.078Z,101507.59
2022-09-06T11:38:23.729Z,101507.00
2022-09-06T11:41:00.658Z,101510.16
2022-09-06T11:43:48.475Z,101506.63
2022-09-06T11:46:56.158Z,101502.31
2022-09-06T11:49:41.861Z,101504.25
2022-09-06T11:52:41.546Z,101499.25
2022-09-06T11:55:16.597Z,101499.16
2022-09-06T11:57:48.514Z,101493.09
2022-09-06T12:00:25.749Z,101491.28
2022-09-06T12:06:15.210Z,101490.84
2022-09-06T12:08:45.072Z,101487.16
2022-09-06T12:11:30.997Z,101492.53
2022-09-06T12:14:05.931Z,101491.41
2022-09-06T12:17:07.044Z,101488.84
2022-09-06T12:19:47.442Z,101492.38
2022-09-06T12:23:04.111Z,101488.94
2022-09-06T12:25:58.572Z,101481.03
2022-09-06T12:28:47.309Z,101477.69
2022-09-06T12:31:29.248Z,101472.94
2022-09-06T12:34:00.202Z,101459.00
2022-09-06T12:36:34.286Z,101464.34
2022-09-06T12:39:06.859Z,101463.69
2022-09-06T12:41:43.540Z,101452.31
2022-09-06T12:44:14.049Z,101445.22
2022-09-06T12:46:48.753Z,101444.06
2022-09-06T12:49:21.215Z,101438.84
2022-09-06T12:51:53.298Z,101445.00
2022-09-06T12:54:25.308Z,101433.72
2022-09-06T12:56:55.725Z,101441.56
2022-09-06T12:59:27.227Z,101433.69
2022-09-06T13:02:01.617Z,101433.69
2022-09-06T13:04:39.825Z,101429.34
2022-09-06T13:07:15.006Z,101419.59
2022-09-06T13:09:46.915Z,101428.97
2022-09-06T13:12:26.359Z,101422.81
2022-09-06T13:14:56.641Z,101419.28
2022-09-06T13:17:27.890Z,101422.03
2022-09-06T13:19:58.193Z,101423.63
2022-09-06T13:22:44.979Z,101420.06
2022-09-06T13:25:26.839Z,101425.28
2022-09-06T13:28:01.474Z,101421.13
2022-09-06T13:30:36.894Z,101418.31
2022-09-06T13:33:07.970Z,101421.84
2022-09-06T13:35:39.874Z,101421.91
2022-09-06T13:38:35.019Z,101429.75
2022-09-06T13:41:15.871Z,101427.13
2022-09-06T13:43:48.052Z,101435.09
2022-09-06T13:46:17.619Z,101434.94
2022-09-06T13:48:47.092Z,101431.25
2022-09-06T13:51:18.226Z,101431.38
2022-09-06T13:53:50.273Z,101430.53
2022-09-06T13:56:19.921Z,101428.19
2022-09-06T13:58:49.618Z,101428.16
2022-09-06T14:01:19.369Z,101416.81
2022-09-06T14:03:48.908Z,101415.94
2022-09-06T14:06:18.813Z,101401.78
2022-09-06T14:09:06.457Z,101411.38
2022-09-06T14:11:38.000Z,101406.16
2022-09-06T14:14:07.937Z,101403.50
2022-09-06T14:16:37.530Z,101416.44
2022-09-06T14:19:07.862Z,101413.78
2022-09-06T14:21:37.514Z,101408.56
2022-09-06T14:24:10.342Z,101400.81
2022-09-06T14:26:40.645Z,101400.94
2022-09-06T14:29:10.077Z,101403.69
2022-09-06T14:31:39.799Z,101388.84
2022-09-06T14:34:09.242Z,101389.69
2022-09-06T14:36:38.738Z,101380.88
2022-09-06T14:39:10.822Z,101387.78
2022-09-06T14:41:40.514Z,101384.44
2022-09-06T14:44:10.102Z,101377.47
2022-09-06T14:46:39.797Z,101380.88
2022-09-06T14:49:10.948Z,101381.94
2022-09-06T14:51:41.006Z,101376.75
2022-09-06T14:54:14.791Z,101387.81
2022-09-06T14:56:45.318Z,101378.31
2022-09-06T14:59:15.310Z,101379.25
2022-09-06T15:01:44.999Z,101371.38
2022-09-06T15:04:15.098Z,101372.38
2022-09-06T15:06:47.123Z,101374.22
2022-09-06T15:09:21.004Z,101369.25
2022-09-06T15:11:51.934Z,101365.84
2022-09-06T15:14:23.109Z,101367.75
2022-09-06T15:16:56.498Z,101357.19
2022-09-06T15:19:27.198Z,101358.03
2022-09-06T15:21:57.301Z,101360.41
2022-09-06T15:24:29.494Z,101353.31
2022-09-06T15:26:59.424Z,101355.19
2022-09-06T15:29:29.699Z,101348.19
2022-09-06T15:31:59.301Z,101349.22
2022-09-06T15:34:29.224Z,101350.16
2022-09-06T15:36:59.231Z,101343.28
2022-09-06T15:39:31.485Z,101345.59
2022-09-06T15:42:01.258Z,101342.97
2022-09-06T15:44:30.863Z,101342.19
2022-09-06T15:47:01.154Z,101344.75
2022-09-06T15:49:33.874Z,101349.94
2022-09-06T15:52:06.056Z,101340.31
2022-09-06T15:54:50.644Z,101339.50
2022-09-06T15:57:20.642Z,101339.31
2022-09-06T15:59:50.487Z,101343.69
2022-09-06T16:02:20.122Z,101341.16
2022-09-06T16:04:49.880Z,101334.28
2022-09-06T16:07:19.662Z,101327.38
2022-09-06T16:09:52.008Z,101322.22
2022-09-06T16:12:21.763Z,101326.56
2022-09-06T16:14:51.316Z,101321.66
2022-09-06T16:17:22.399Z,101324.38
2022-09-06T16:19:52.053Z,101328.91
2022-09-06T16:22:21.598Z,101318.47
2022-09-06T16:24:53.773Z,101312.47
2022-09-06T16:27:23.411Z,101314.47
2022-09-06T16:29:53.107Z,101309.16
2022-09-06T16:32:22.721Z,101303.00
2022-09-06T16:34:52.580Z,101303.69
2022-09-06T16:37:22.706Z,101305.41
2022-09-06T16:39:56.084Z,101299.09
2022-09-06T16:42:25.706Z,101294.66
2022-09-06T16:44:55.582Z,101291.13
2022-09-06T16:47:25.161Z,101292.00
2022-09-06T16:49:54.741Z,101292.94
2022-09-06T16:52:24.331Z,101295.44
2022-09-06T16:54:56.621Z,101285.84
2022-09-06T16:57:26.156Z,101285.78
2022-09-06T16:59:55.769Z,101287.53
2022-09-06T17:02:25.429Z,101282.34
2022-09-06T17:04:55.037Z,101275.28
2022-09-06T17:07:24.823Z,101282.22
2022-09-06T17:09:57.124Z,101272.72
2022-09-06T17:12:28.027Z,101277.75
2022-09-06T17:14:57.780Z,101282.22
2022-09-06T17:17:24.947Z,101280.34
2022-09-06T17:19:54.511Z,101279.44
2022-09-06T17:22:24.320Z,101275.03
2022-09-06T17:24:53.887Z,101275.72
2022-09-06T17:27:26.067Z,101276.69
2022-09-06T17:29:55.617Z,101273.19
2022-09-06T17:32:25.609Z,101271.34
2022-09-06T17:34:55.227Z,101267.66
2022-09-06T17:37:25.082Z,101271.19
2022-09-06T17:39:54.761Z,101273.72
2022-09-06T17:42:27.098Z,101271.03
2022-09-06T17:44:56.675Z,101269.28
2022-09-06T17:47:26.294Z,101267.44
2022-09-06T17:49:55.844Z,101266.53
2022-09-06T17:52:25.504Z,101271.69
2022-09-06T17:54:55.080Z,101273.34
2022-09-06T17:57:27.305Z,101266.59
2022-09-06T17:59:56.957Z,101277.00
2022-09-06T18:02:26.575Z,101275.09
2022-09-06T18:04:56.208Z,101274.28
2022-09-06T18:07:25.786Z,101272.56
2022-09-06T18:09:55.534Z,101284.63
2022-09-06T18:12:27.985Z,101280.13
2022-09-06T18:14:57.960Z,101281.72
2022-09-06T18:17:27.559Z,101285.81
2022-09-06T18:19:57.685Z,101284.06
2022-09-06T18:22:27.758Z,101277.25
2022-09-06T18:24:58.475Z,101267.84
2022-09-06T18:27:30.845Z,101280.78
2022-09-06T18:30:00.475Z,101287.56
2022-09-06T18:32:30.140Z,101280.75
2022-09-06T18:34:59.834Z,101289.44
2022-09-06T18:37:30.077Z,101285.84
2022-09-06T18:39:59.770Z,101282.34
2022-09-06T18:42:32.084Z,101291.97
2022-09-06T18:45:02.114Z,101291.50
2022-09-06T18:47:31.700Z,101294.03
2022-09-06T18:50:01.367Z,101290.25
2022-09-06T18:52:32.201Z,101294.25
2022-09-06T18:55:01.799Z,101290.94
2022-09-06T18:57:33.991Z,101285.53
2022-09-06T19:00:03.673Z,101291.50
2022-09-06T19:02:33.263Z,101296.69
2022-09-06T19:05:02.910Z,101290.41
2022-09-06T19:07:32.617Z,101299.03
2022-09-06T19:10:02.346Z,101300.47
2022-09-06T19:12:35.482Z,101307.19
2022-09-06T19:15:05.043Z,101308.69
2022-09-06T19:17:34.611Z,101305.25
2022-09-06T19:20:04.549Z,101303.53
2022-09-06T19:22:34.146Z,101296.69
2022-09-06T19:25:03.829Z,101299.19
2022-09-06T19:27:36.383Z,101301.72
2022-09-06T19:30:07.001Z,101299.41
2022-09-06T19:32:37.302Z,101303.31
2022-09-06T19:35:07.566Z,101298.97
2022-09-06T19:37:38.931Z,101298.03
2022-09-06T19:40:09.951Z,101298.47
2022-09-06T19:42:42.132Z,101294.81
2022-09-06T19:45:12.449Z,101296.63
2022-09-06T19:47:42.204Z,101296.50
2022-09-06T19:50:11.905Z,101294.41
2022-09-06T19:52:41.465Z,101285.66
2022-09-06T19:55:11.899Z,101283.03
2022-09-06T19:57:44.030Z,101281.91
2022-09-06T20:00:15.105Z,101280.91
2022-09-06T20:02:44.802Z,101289.56
2022-09-06T20:05:14.365Z,101281.72
2022-09-06T20:07:43.934Z,101279.00
2022-09-06T20:10:13.642Z,101271.19
2022-09-06T20:12:46.227Z,101269.25
2022-09-06T20:15:15.797Z,101266.56
2022-09-06T20:17:45.363Z,101269.97
2022-09-06T20:20:15.162Z,101263.06
2022-09-06T20:22:48.208Z,101273.22
2022-09-06T20:25:17.991Z,101274.06
2022-09-06T20:27:50.135Z,101272.06
2022-09-06T20:30:19.929Z,101272.97
2022-09-06T20:32:49.512Z,101270.88
2022-09-06T20:35:19.284Z,101267.50
2022-09-06T20:37:48.831Z,101260.53
2022-09-06T20:40:18.686Z,101256.06
2022-09-06T20:42:50.872Z,101261.75
2022-09-06T20:45:22.651Z,101259.75
2022-09-06T20:47:52.341Z,101252.63
2022-09-06T20:50:22.051Z,101245.00
2022-09-06T20:52:53.147Z,101241.78
2022-09-06T20:55:22.697Z,101244.38
2022-09-06T20:57:55.058Z,101238.25
2022-09-06T21:00:24.690Z,101231.16
2022-09-06T21:02:54.346Z,101232.59
2022-09-06T21:05:23.897Z,101228.88
2022-09-06T21:07:53.527Z,101231.53
2022-09-06T21:10:23.194Z,101227.84
2022-09-06T21:12:55.417Z,101226.81
2022-09-06T21:15:24.960Z,101226.44
2022-09-06T21:17:54.503Z,101218.34
2022-09-06T21:20:24.165Z,101219.13
2022-09-06T21:22:53.799Z,101225.19
2022-09-06T21:25:23.372Z,101226.75
2022-09-06T21:27:55.990Z,101222.50
2022-09-06T21:30:25.733Z,101216.47
2022-09-06T21:32:58.522Z,101212.59
2022-09-06T21:35:28.118Z,101215.59
2022-09-06T21:37:57.665Z,101204.00
2022-09-06T21:40:27.345Z,101211.94
2022-09-06T21:42:59.478Z,101198.47
2022-09-06T21:45:29.061Z,101207.75
2022-09-06T21:47:58.613Z,101200.81
2022-09-06T21:50:28.231Z,101197.41
2022-09-06T21:52:57.829Z,101201.47
2022-09-06T21:55:27.487Z,101196.16
2022-09-06T21:57:59.653Z,101189.09
2022-09-06T22:00:29.353Z,101189.16
2022-09-06T22:02:59.015Z,101193.25
2022-09-06T22:05:28.784Z,101190.56
2022-09-06T22:07:58.420Z,101190.59
2022-09-06T22:10:28.584Z,101197.53
2022-09-06T22:13:00.766Z,101194.22
2022-09-06T22:15:30.361Z,101194.16
2022-09-06T22:17:59.926Z,101187.16
2022-09-06T22:20:29.522Z,101187.94
2022-09-06T22:22:59.238Z,101180.03
2022-09-06T22:25:28.803Z,101184.44
2022-09-06T22:28:01.305Z,101174.00
2022-09-06T22:30:30.936Z,101174.09
2022-09-06T22:33:00.640Z,101172.16
2022-09-06T22:35:30.502Z,101169.56
2022-09-06T22:38:00.070Z,101174.47
2022-09-06T22:40:29.750Z,101171.91
2022-09-06T22:43:02.471Z,101172.88
2022-09-06T22:45:32.655Z,101168.66
2022-09-06T22:48:02.431Z,101170.22
2022-09-06T22:50:32.558Z,101170.84
2022-09-06T22:53:02.142Z,101185.25
2022-09-06T22:55:31.706Z,101180.00
2022-09-06T22:58:03.959Z,101173.31
2022-09-06T23:00:33.803Z,101167.25
2022-09-06T23:03:03.476Z,101174.19
2022-09-06T23:05:33.667Z,101163.81
2022-09-06T23:08:03.914Z,101161.88
2022-09-06T23:10:34.303Z,101159.88
2022-09-06T23:13:07.837Z,101148.72
2022-09-06T23:15:38.015Z,101153.50
2022-09-06T23:18:07.603Z,101158.50
2022-09-06T23:20:38.566Z,101149.50
2022-09-06T23:23:08.633Z,101147.91
2022-09-06T23:25:39.975Z,101145.31
2022-09-06T23:28:12.157Z,101149.00
2022-09-06T23:30:41.852Z,101136.63
2022-09-06T23:33:11.411Z,101137.69
2022-09-06T23:35:41.263Z,101137.47
2022-09-06T23:38:10.905Z,101131.78
2022-09-06T23:40:40.538Z,101121.34
2022-09-06T23:43:12.709Z,101116.03
2022-09-06T23:45:42.280Z,101118.50
2022-09-06T23:48:11.918Z,101130.28
2022-09-06T23:50:41.586Z,101125.81
2022-09-06T23:53:11.619Z,101124.31
2022-09-06T23:55:41.254Z,101118.31
2022-09-06T23:58:13.922Z,101117.38
